sensor_id;sensor_type;location;lat;lon;timestamp;pressure;altitude;pressure_sealevel;temperature;humidity
71306;BME280;59097;46.858;18.632;2023-01-25T00:00:01;101964.44;;;1.83;100.00
71306;BME280;59097;46.858;18.632;2023-01-25T00:02:27;101968.44;;;1.75;100.00
71306;BME280;59097;46.858;18.632;2023-01-25T00:04:54;101968.00;;;1.68;100.00
71306;BME280;59097;46.858;18.632;2023-01-25T00:07:20;101968.91;;;1.67;100.00
71306;BME280;59097;46.858;18.632;2023-01-25T00:09:46;101976.19;;;1.62;100.00
71306;BME280;59097;46.858;18.632;2023-01-25T00:12:19;101973.78;;;2.28;100.00
71306;BME280;59097;46.858;18.632;2023-01-25T00:14:47;101973.78;;;2.28;100.00
71306;BME280;59097;46.858;18.632;2023-01-25T00:17:15;101980.22;;;1.68;100.00
71306;BME280;59097;46.858;18.632;2023-01-25T00:19:43;101976.03;;;1.65;100.00
71306;BME280;59097;46.858;18.632;2023-01-25T00:22:12;101918.78;;;1.33;100.00
71306;BME280;59097;46.858;18.632;2023-01-25T00:24:39;101971.06;;;1.61;100.00
71306;BME280;59097;46.858;18.632;2023-01-25T00:27:07;101974.44;;;1.63;100.00
71306;BME280;59097;46.858;18.632;2023-01-25T00:29:36;101970.88;;;1.64;100.00
71306;BME280;59097;46.858;18.632;2023-01-25T00:32:28;101971.91;;;1.75;100.00
71306;BME280;59097;46.858;18.632;2023-01-25T00:35:29;101982.81;;;1.82;100.00
71306;BME280;59097;46.858;18.632;2023-01-25T00:38:28;101981.88;;;1.69;100.00
71306;BME280;59097;46.858;18.632;2023-01-25T00:40:56;101980.13;;;1.83;100.00
71306;BME280;59097;46.858;18.632;2023-01-25T00:43:24;101980.00;;;1.85;100.00
71306;BME280;59097;46.858;18.632;2023-01-25T00:45:50;101976.56;;;1.84;100.00
71306;BME280;59097;46.858;18.632;2023-01-25T00:48:22;101981.00;;;2.51;100.00
71306;BME280;59097;46.858;18.632;2023-01-25T00:50:51;101981.00;;;2.51;100.00
71306;BME280;59097;46.858;18.632;2023-01-25T00:53:19;101980.00;;;1.85;100.00
71306;BME280;59097;46.858;18.632;2023-01-25T00:55:51;101977.75;;;1.79;100.00
71306;BME280;59097;46.858;18.632;2023-01-25T00:58:20;101987.78;;;1.86;100.00
71306;BME280;59097;46.858;18.632;2023-01-25T01:00:48;101983.41;;;1.73;100.00
71306;BME280;59097;46.858;18.632;2023-01-25T01:03:17;101985.44;;;1.82;100.00
71306;BME280;59097;46.858;18.632;2023-01-25T01:05:46;101990.09;;;1.77;100.00
71306;BME280;59097;46.858;18.632;2023-01-25T01:08:39;101987.03;;;1.84;100.00
71306;BME280;59097;46.858;18.632;2023-01-25T01:11:38;101985.34;;;1.83;100.00
71306;BME280;59097;46.858;18.632;2023-01-25T01:14:21;101989.81;;;1.81;100.00
71306;BME280;59097;46.858;18.632;2023-01-25T01:16:48;101980.69;;;1.88;100.00
71306;BME280;59097;46.858;18.632;2023-01-25T01:19:14;101974.78;;;1.85;100.00
71306;BME280;59097;46.858;18.632;2023-01-25T01:21:41;101979.66;;;1.77;100.00
71306;BME280;59097;46.858;18.632;2023-01-25T01:24:13;101978.06;;;2.29;100.00
71306;BME280;59097;46.858;18.632;2023-01-25T01:26:42;101978.06;;;2.29;100.00
71306;BME280;59097;46.858;18.632;2023-01-25T01:29:11;101975.56;;;1.73;100.00
71306;BME280;59097;46.858;18.632;2023-01-25T01:31:39;101969.47;;;1.72;100.00
71306;BME280;59097;46.858;18.632;2023-01-25T01:34:11;101980.50;;;1.77;100.00
71306;BME280;59097;46.858;18.632;2023-01-25T01:36:40;101981.53;;;1.75;100.00
71306;BME280;59097;46.858;18.632;2023-01-25T01:39:09;101972.75;;;1.62;100.00
71306;BME280;59097;46.858;18.632;2023-01-25T01:41:37;101945.50;;;1.38;100.00
71306;BME280;59097;46.858;18.632;2023-01-25T01:44:12;101975.44;;;1.46;100.00
71306;BME280;59097;46.858;18.632;2023-01-25T01:46:58;101978.97;;;1.31;100.00
71306;BME280;59097;46.858;18.632;2023-01-25T01:49:40;101965.63;;;1.21;100.00
71306;BME280;59097;46.858;18.632;2023-01-25T01:52:16;101975.72;;;1.27;100.00
71306;BME280;59097;46.858;18.632;2023-01-25T01:54:46;101977.31;;;1.30;100.00
71306;BME280;59097;46.858;18.632;2023-01-25T01:57:24;101984.03;;;1.20;100.00
71306;BME280;59097;46.858;18.632;2023-01-25T02:00:02;101967.19;;;1.10;100.00
71306;BME280;59097;46.858;18.632;2023-01-25T02:02:35;101966.59;;;1.63;100.00
71306;BME280;59097;46.858;18.632;2023-01-25T02:05:06;101966.59;;;1.63;100.00
71306;BME280;59097;46.858;18.632;2023-01-25T02:07:37;101967.59;;;0.88;100.00
71306;BME280;59097;46.858;18.632;2023-01-25T02:10:10;101962.34;;;0.74;100.00
71306;BME280;59097;46.858;18.632;2023-01-25T02:12:41;101970.75;;;0.79;100.00
71306;BME280;59097;46.858;18.632;2023-01-25T02:15:10;101949.41;;;0.57;100.00
71306;BME280;59097;46.858;18.632;2023-01-25T02:17:40;101964.66;;;0.49;100.00
71306;BME280;59097;46.858;18.632;2023-01-25T02:20:38;101943.97;;;0.46;100.00
71306;BME280;59097;46.858;18.632;2023-01-25T02:23:35;101953.84;;;0.41;100.00
71306;BME280;59097;46.858;18.632;2023-01-25T02:26:21;101959.06;;;0.41;100.00
71306;BME280;59097;46.858;18.632;2023-01-25T02:28:55;101960.88;;;0.39;100.00
71306;BME280;59097;46.858;18.632;2023-01-25T02:31:24;101961.84;;;0.38;100.00
71306;BME280;59097;46.858;18.632;2023-01-25T02:33:50;101960.31;;;0.34;100.00
71306;BME280;59097;46.858;18.632;2023-01-25T02:36:24;101964.78;;;0.32;100.00
71306;BME280;59097;46.858;18.632;2023-01-25T02:38:58;101958.81;;;0.30;100.00
71306;BME280;59097;46.858;18.632;2023-01-25T02:41:34;101948.94;;;0.80;100.00
71306;BME280;59097;46.858;18.632;2023-01-25T02:44:07;101948.94;;;0.80;100.00
71306;BME280;59097;46.858;18.632;2023-01-25T02:46:38;101956.19;;;0.30;100.00
71306;BME280;59097;46.858;18.632;2023-01-25T02:49:08;101936.59;;;0.07;100.00
71306;BME280;59097;46.858;18.632;2023-01-25T02:51:40;101947.94;;;0.06;100.00
71306;BME280;59097;46.858;18.632;2023-01-25T02:54:11;101950.31;;;0.11;100.00
71306;BME280;59097;46.858;18.632;2023-01-25T02:56:39;101944.50;;;0.06;100.00
71306;BME280;59097;46.858;18.632;2023-01-25T02:59:09;101941.13;;;0.04;100.00
71306;BME280;59097;46.858;18.632;2023-01-25T03:01:52;101936.66;;;0.06;100.00
71306;BME280;59097;46.858;18.632;2023-01-25T03:04:49;101930.88;;;0.00;100.00
71306;BME280;59097;46.858;18.632;2023-01-25T03:07:16;101929.22;;;-0.01;100.00
71306;BME280;59097;46.858;18.632;2023-01-25T03:09:42;101937.78;;;0.02;100.00
71306;BME280;59097;46.858;18.632;2023-01-25T03:12:08;101927.34;;;0.02;100.00
71306;BME280;59097;46.858;18.632;2023-01-25T03:14:34;101930.38;;;-0.06;100.00
71306;BME280;59097;46.858;18.632;2023-01-25T03:17:01;101925.22;;;-0.08;100.00
71306;BME280;59097;46.858;18.632;2023-01-25T03:19:33;101919.16;;;0.69;100.00
71306;BME280;59097;46.858;18.632;2023-01-25T03:22:02;101919.16;;;0.69;100.00
71306;BME280;59097;46.858;18.632;2023-01-25T03:24:30;101920.12;;;0.07;100.00
71306;BME280;59097;46.858;18.632;2023-01-25T03:26:58;101925.16;;;0.25;100.00
71306;BME280;59097;46.858;18.632;2023-01-25T03:29:40;101931.25;;;0.40;100.00
71306;BME280;59097;46.858;18.632;2023-01-25T03:32:09;101930.97;;;0.60;100.00
71306;BME280;59097;46.858;18.632;2023-01-25T03:34:38;101919.50;;;0.62;100.00
71306;BME280;59097;46.858;18.632;2023-01-25T03:37:08;101932.81;;;0.88;100.00
71306;BME280;59097;46.858;18.632;2023-01-25T03:39:53;101931.44;;;0.96;100.00
71306;BME280;59097;46.858;18.632;2023-01-25T03:42:34;101943.38;;;1.00;100.00
71306;BME280;59097;46.858;18.632;2023-01-25T03:45:00;101939.84;;;1.15;100.00
71306;BME280;59097;46.858;18.632;2023-01-25T03:47:27;101927.19;;;0.80;100.00
71306;BME280;59097;46.858;18.632;2023-01-25T03:49:54;101927.50;;;0.89;100.00
71306;BME280;59097;46.858;18.632;2023-01-25T03:52:26;101925.53;;;0.93;100.00
71306;BME280;59097;46.858;18.632;2023-01-25T03:55:01;101918.31;;;1.26;100.00
71306;BME280;59097;46.858;18.632;2023-01-25T03:57:29;101918.31;;;1.26;100.00
71306;BME280;59097;46.858;18.632;2023-01-25T03:59:58;101924.69;;;0.78;100.00
71306;BME280;59097;46.858;18.632;2023-01-25T04:02:26;101922.69;;;0.68;100.00
71306;BME280;59097;46.858;18.632;2023-01-25T04:04:55;101919.22;;;0.97;100.00
71306;BME280;59097;46.858;18.632;2023-01-25T04:07:23;101918.66;;;0.92;100.00
71306;BME280;59097;46.858;18.632;2023-01-25T04:09:52;101881.16;;;0.93;100.00
71306;BME280;59097;46.858;18.632;2023-01-25T04:12:20;101918.78;;;1.18;100.00
71306;BME280;59097;46.858;18.632;2023-01-25T04:14:48;101922.13;;;1.20;100.00
71306;BME280;59097;46.858;18.632;2023-01-25T04:17:46;101920.84;;;1.27;100.00
71306;BME280;59097;46.858;18.632;2023-01-25T04:20:12;101922.50;;;1.28;100.00
71306;BME280;59097;46.858;18.632;2023-01-25T04:22:38;101925.63;;;1.35;100.00
71306;BME280;59097;46.858;18.632;2023-01-25T04:25:05;101917.22;;;1.30;100.00
71306;BME280;59097;46.858;18.632;2023-01-25T04:27:31;101916.38;;;1.30;100.00
71306;BME280;59097;46.858;18.632;2023-01-25T04:29:57;101919.44;;;1.36;100.00
71306;BME280;59097;46.858;18.632;2023-01-25T04:32:29;101919.19;;;1.96;100.00
71306;BME280;59097;46.858;18.632;2023-01-25T04:34:59;101919.19;;;1.96;100.00
71306;BME280;59097;46.858;18.632;2023-01-25T04:37:28;101916.94;;;1.35;100.00
71306;BME280;59097;46.858;18.632;2023-01-25T04:39:57;101920.47;;;1.34;100.00
71306;BME280;59097;46.858;18.632;2023-01-25T04:42:26;101925.06;;;1.30;100.00
71306;BME280;59097;46.858;18.632;2023-01-25T04:44:54;101932.03;;;1.30;100.00
71306;BME280;59097;46.858;18.632;2023-01-25T04:47:22;101916.09;;;1.20;100.00
71306;BME280;59097;46.858;18.632;2023-01-25T04:49:50;101931.09;;;1.31;100.00
71306;BME280;59097;46.858;18.632;2023-01-25T04:52:33;101929.91;;;1.22;100.00
71306;BME280;59097;46.858;18.632;2023-01-25T04:55:31;101936.78;;;1.23;100.00
71306;BME280;59097;46.858;18.632;2023-01-25T04:58:14;101937.44;;;1.26;100.00
71306;BME280;59097;46.858;18.632;2023-01-25T05:00:40;101948.09;;;1.38;100.00
71306;BME280;59097;46.858;18.632;2023-01-25T05:03:06;101943.69;;;1.38;100.00
71306;BME280;59097;46.858;18.632;2023-01-25T05:05:33;101950.50;;;1.41;100.00
71306;BME280;59097;46.858;18.632;2023-01-25T05:07:59;101957.44;;;1.42;100.00
71306;BME280;59097;46.858;18.632;2023-01-25T05:10:31;101951.19;;;2.13;100.00
71306;BME280;59097;46.858;18.632;2023-01-25T05:13:04;101951.19;;;2.13;100.00
71306;BME280;59097;46.858;18.632;2023-01-25T05:15:32;101954.06;;;1.54;100.00
71306;BME280;59097;46.858;18.632;2023-01-25T05:18:02;101947.34;;;1.50;100.00
71306;BME280;59097;46.858;18.632;2023-01-25T05:20:30;101941.53;;;1.59;100.00
71306;BME280;59097;46.858;18.632;2023-01-25T05:22:59;101926.25;;;1.53;100.00
71306;BME280;59097;46.858;18.632;2023-01-25T05:25:27;101936.88;;;1.64;100.00
71306;BME280;59097;46.858;18.632;2023-01-25T05:28:24;101906.38;;;1.50;100.00
71306;BME280;59097;46.858;18.632;2023-01-25T05:30:54;101945.37;;;1.67;100.00
71306;BME280;59097;46.858;18.632;2023-01-25T05:33:51;101947.25;;;1.65;100.00
71306;BME280;59097;46.858;18.632;2023-01-25T05:36:17;101942.78;;;1.67;100.00
71306;BME280;59097;46.858;18.632;2023-01-25T05:38:43;101951.09;;;1.60;100.00
71306;BME280;59097;46.858;18.632;2023-01-25T05:41:09;101890.78;;;1.35;100.00
71306;BME280;59097;46.858;18.632;2023-01-25T05:43:35;101938.56;;;1.65;100.00
71306;BME280;59097;46.858;18.632;2023-01-25T05:46:01;101943.62;;;1.68;100.00
71306;BME280;59097;46.858;18.632;2023-01-25T05:48:36;101946.88;;;2.26;100.00
71306;BME280;59097;46.858;18.632;2023-01-25T05:51:06;101946.88;;;2.26;100.00
71306;BME280;59097;46.858;18.632;2023-01-25T05:53:34;101945.09;;;1.72;100.00
71306;BME280;59097;46.858;18.632;2023-01-25T05:56:04;101943.97;;;1.62;100.00
71306;BME280;59097;46.858;18.632;2023-01-25T05:58:32;101945.28;;;1.69;100.00
71306;BME280;59097;46.858;18.632;2023-01-25T06:01:02;101950.31;;;1.72;100.00
71306;BME280;59097;46.858;18.632;2023-01-25T06:03:36;101952.56;;;1.64;100.00
71306;BME280;59097;46.858;18.632;2023-01-25T06:06:05;101948.81;;;1.82;100.00
71306;BME280;59097;46.858;18.632;2023-01-25T06:08:34;101942.66;;;1.83;100.00
71306;BME280;59097;46.858;18.632;2023-01-25T06:11:18;101946.50;;;1.77;100.00
71306;BME280;59097;46.858;18.632;2023-01-25T06:14:30;101953.69;;;1.88;100.00
71306;BME280;59097;46.858;18.632;2023-01-25T06:17:00;101952.75;;;1.89;100.00
71306;BME280;59097;46.858;18.632;2023-01-25T06:19:49;101957.41;;;1.98;100.00
71306;BME280;59097;46.858;18.632;2023-01-25T06:22:18;101959.66;;;1.90;100.00
71306;BME280;59097;46.858;18.632;2023-01-25T06:24:46;101962.00;;;1.80;100.00
71306;BME280;59097;46.858;18.632;2023-01-25T06:27:14;101959.19;;;1.69;100.00
71306;BME280;59097;46.858;18.632;2023-01-25T06:29:42;101957.78;;;1.64;100.00
71306;BME280;59097;46.858;18.632;2023-01-25T06:32:11;101962.84;;;1.67;100.00
71306;BME280;59097;46.858;18.632;2023-01-25T06:34:39;101945.97;;;1.58;100.00
71306;BME280;59097;46.858;18.632;2023-01-25T06:37:09;101961.75;;;1.71;100.00
71306;BME280;59097;46.858;18.632;2023-01-25T06:39:37;101966.47;;;1.64;100.00
71306;BME280;59097;46.858;18.632;2023-01-25T06:42:05;101955.56;;;1.58;100.00
71306;BME280;59097;46.858;18.632;2023-01-25T06:44:40;101944.06;;;1.46;100.00
71306;BME280;59097;46.858;18.632;2023-01-25T06:47:22;101967.81;;;1.57;100.00
71306;BME280;59097;46.858;18.632;2023-01-25T06:49:51;101974.62;;;1.60;100.00
71306;BME280;59097;46.858;18.632;2023-01-25T06:52:30;101973.69;;;1.61;100.00
71306;BME280;59097;46.858;18.632;2023-01-25T06:55:10;101966.75;;;1.74;100.00
71306;BME280;59097;46.858;18.632;2023-01-25T06:57:53;101979.28;;;1.55;100.00
71306;BME280;59097;46.858;18.632;2023-01-25T07:00:31;101979.09;;;1.58;100.00
71306;BME280;59097;46.858;18.632;2023-01-25T07:03:00;101976.66;;;1.69;100.00
71306;BME280;59097;46.858;18.632;2023-01-25T07:05:28;101941.75;;;1.42;100.00
71306;BME280;59097;46.858;18.632;2023-01-25T07:07:56;101978.34;;;1.70;100.00
71306;BME280;59097;46.858;18.632;2023-01-25T07:10:29;101906.28;;;1.23;100.00
71306;BME280;59097;46.858;18.632;2023-01-25T07:13:06;101980.03;;;1.71;100.00
71306;BME280;59097;46.858;18.632;2023-01-25T07:15:38;101978.38;;;1.56;100.00
71306;BME280;59097;46.858;18.632;2023-01-25T07:18:06;101973.47;;;1.64;100.00
71306;BME280;59097;46.858;18.632;2023-01-25T07:20:46;101947.25;;;1.51;100.00
71306;BME280;59097;46.858;18.632;2023-01-25T07:23:14;101895.38;;;1.17;100.00
71306;BME280;59097;46.858;18.632;2023-01-25T07:25:47;101947.72;;;1.58;100.00
71306;BME280;59097;46.858;18.632;2023-01-25T07:28:16;101970.94;;;1.76;100.00
71306;BME280;59097;46.858;18.632;2023-01-25T07:30:46;101925.59;;;1.49;100.00
71306;BME280;59097;46.858;18.632;2023-01-25T07:33:20;101978.25;;;1.85;100.00
71306;BME280;59097;46.858;18.632;2023-01-25T07:35:49;101970.28;;;1.87;100.00
71306;BME280;59097;46.858;18.632;2023-01-25T07:38:19;101950.69;;;1.80;100.00
71306;BME280;59097;46.858;18.632;2023-01-25T07:40:51;101950.31;;;1.72;100.00
71306;BME280;59097;46.858;18.632;2023-01-25T07:43:39;101980.19;;;1.96;100.00
71306;BME280;59097;46.858;18.632;2023-01-25T07:46:12;101985.44;;;1.96;100.00
71306;BME280;59097;46.858;18.632;2023-01-25T07:48:47;101974.34;;;1.78;100.00
71306;BME280;59097;46.858;18.632;2023-01-25T07:51:18;101974.41;;;1.91;100.00
71306;BME280;59097;46.858;18.632;2023-01-25T07:53:54;101961.41;;;1.89;100.00
71306;BME280;59097;46.858;18.632;2023-01-25T07:56:25;101973.09;;;1.98;100.00
71306;BME280;59097;46.858;18.632;2023-01-25T07:58:55;101972.16;;;1.99;100.00
71306;BME280;59097;46.858;18.632;2023-01-25T08:01:26;101958.53;;;1.80;100.00
71306;BME280;59097;46.858;18.632;2023-01-25T08:03:55;101972.28;;;1.83;100.00
71306;BME280;59097;46.858;18.632;2023-01-25T08:06:25;101979.94;;;1.86;100.00
71306;BME280;59097;46.858;18.632;2023-01-25T08:08:58;101971.12;;;1.87;100.00
71306;BME280;59097;46.858;18.632;2023-01-25T08:11:28;101980.38;;;1.93;100.00
71306;BME280;59097;46.858;18.632;2023-01-25T08:13:57;101969.56;;;1.99;100.00
71306;BME280;59097;46.858;18.632;2023-01-25T08:16:30;101973.59;;;2.17;100.00
71306;BME280;59097;46.858;18.632;2023-01-25T08:19:00;101974.19;;;2.08;100.00
71306;BME280;59097;46.858;18.632;2023-01-25T08:21:31;101979.88;;;2.15;100.00
71306;BME280;59097;46.858;18.632;2023-01-25T08:24:02;101973.53;;;2.05;100.00
71306;BME280;59097;46.858;18.632;2023-01-25T08:26:44;101973.34;;;2.08;100.00
71306;BME280;59097;46.858;18.632;2023-01-25T08:29:44;101961.12;;;2.08;100.00
71306;BME280;59097;46.858;18.632;2023-01-25T08:32:40;101976.19;;;2.31;100.00
71306;BME280;59097;46.858;18.632;2023-01-25T08:35:22;101978.06;;;2.29;100.00
71306;BME280;59097;46.858;18.632;2023-01-25T08:38:03;101967.66;;;2.42;100.00
71306;BME280;59097;46.858;18.632;2023-01-25T08:40:29;101920.66;;;2.00;100.00
71306;BME280;59097;46.858;18.632;2023-01-25T08:42:56;101944.25;;;2.12;100.00
71306;BME280;59097;46.858;18.632;2023-01-25T08:45:22;101961.47;;;2.43;100.00
71306;BME280;59097;46.858;18.632;2023-01-25T08:48:05;101966.81;;;2.41;100.00
71306;BME280;59097;46.858;18.632;2023-01-25T08:50:37;101953.47;;;3.10;100.00
71306;BME280;59097;46.858;18.632;2023-01-25T08:53:06;101953.47;;;3.10;100.00
71306;BME280;59097;46.858;18.632;2023-01-25T08:55:34;101968.94;;;2.49;100.00
71306;BME280;59097;46.858;18.632;2023-01-25T08:58:02;101943.50;;;2.51;100.00
71306;BME280;59097;46.858;18.632;2023-01-25T09:00:32;101957.03;;;2.58;100.00
71306;BME280;59097;46.858;18.632;2023-01-25T09:03:01;101962.09;;;2.61;100.00
71306;BME280;59097;46.858;18.632;2023-01-25T09:05:29;101930.16;;;2.41;100.00
71306;BME280;59097;46.858;18.632;2023-01-25T09:07:57;101947.09;;;2.63;100.00
71306;BME280;59097;46.858;18.632;2023-01-25T09:10:26;101954.16;;;2.75;100.00
71306;BME280;59097;46.858;18.632;2023-01-25T09:12:55;101957.59;;;2.75;100.00
71306;BME280;59097;46.858;18.632;2023-01-25T09:15:24;101957.91;;;2.71;100.00
71306;BME280;59097;46.858;18.632;2023-01-25T09:17:54;101952.25;;;2.77;100.00
71306;BME280;59097;46.858;18.632;2023-01-25T09:20:23;101954.03;;;2.76;100.00
71306;BME280;59097;46.858;18.632;2023-01-25T09:22:54;101958.03;;;2.82;100.00
71306;BME280;59097;46.858;18.632;2023-01-25T09:25:22;101948.87;;;2.62;100.00
71306;BME280;59097;46.858;18.632;2023-01-25T09:27:51;101910.94;;;2.55;100.00
71306;BME280;59097;46.858;18.632;2023-01-25T09:30:24;101939.09;;;2.91;100.00
71306;BME280;59097;46.858;18.632;2023-01-25T09:32:51;101928.16;;;2.84;100.00
71306;BME280;59097;46.858;18.632;2023-01-25T09:35:52;101922.34;;;2.93;100.00
71306;BME280;59097;46.858;18.632;2023-01-25T09:38:21;101928.50;;;2.92;100.00
71306;BME280;59097;46.858;18.632;2023-01-25T09:41:19;101919.19;;;3.01;100.00
71306;BME280;59097;46.858;18.632;2023-01-25T09:51:56;101909.84;;;3.22;100.00
71306;BME280;59097;46.858;18.632;2023-01-25T09:54:35;101911.66;;;3.09;100.00
71306;BME280;59097;46.858;18.632;2023-01-25T09:57:25;101903.56;;;3.12;100.00
71306;BME280;59097;46.858;18.632;2023-01-25T09:59:55;101894.87;;;3.11;100.00
71306;BME280;59097;46.858;18.632;2023-01-25T10:02:39;101908.72;;;3.26;100.00
71306;BME280;59097;46.858;18.632;2023-01-25T10:05:18;101908.72;;;3.13;100.00
71306;BME280;59097;46.858;18.632;2023-01-25T10:08:05;101900.12;;;3.11;100.00
71306;BME280;59097;46.858;18.632;2023-01-25T10:10:42;101901.78;;;3.00;100.00
71306;BME280;59097;46.858;18.632;2023-01-25T10:13:13;101904.31;;;3.14;100.00
71306;BME280;59097;46.858;18.632;2023-01-25T10:15:46;101885.66;;;3.18;100.00
71306;BME280;59097;46.858;18.632;2023-01-25T10:18:27;101883.22;;;3.15;100.00
71306;BME280;59097;46.858;18.632;2023-01-25T10:21:02;101879.34;;;3.21;100.00
71306;BME280;59097;46.858;18.632;2023-01-25T10:26:25;101874.13;;;2.83;100.00
71306;BME280;59097;46.858;18.632;2023-01-25T10:34:48;101847.69;;;2.86;100.00
71306;BME280;59097;46.858;18.632;2023-01-25T10:37:33;101860.06;;;2.97;100.00
71306;BME280;59097;46.858;18.632;2023-01-25T10:42:47;101857.88;;;2.91;100.00
71306;BME280;59097;46.858;18.632;2023-01-25T10:45:16;101849.16;;;2.78;100.00
71306;BME280;59097;46.858;18.632;2023-01-25T10:47:48;101850.84;;;3.04;100.00
71306;BME280;59097;46.858;18.632;2023-01-25T10:53:27;101843.91;;;3.15;100.00
71306;BME280;59097;46.858;18.632;2023-01-25T10:58:41;101840.44;;;3.15;100.00
71306;BME280;59097;46.858;18.632;2023-01-25T11:01:27;101835.72;;;3.69;100.00
71306;BME280;59097;46.858;18.632;2023-01-25T11:03:57;101835.72;;;3.69;100.00
71306;BME280;59097;46.858;18.632;2023-01-25T11:11:58;101824.62;;;3.16;100.00
71306;BME280;59097;46.858;18.632;2023-01-25T11:14:30;101818.72;;;3.26;100.00
71306;BME280;59097;46.858;18.632;2023-01-25T11:17:00;101820.19;;;3.17;100.00
71306;BME280;59097;46.858;18.632;2023-01-25T11:19:39;101799.47;;;3.14;100.00
71306;BME280;59097;46.858;18.632;2023-01-25T11:22:28;101813.59;;;3.24;100.00
71306;BME280;59097;46.858;18.632;2023-01-25T11:24:56;101805.00;;;3.35;100.00
71306;BME280;59097;46.858;18.632;2023-01-25T11:27:26;101808.53;;;3.34;100.00
71306;BME280;59097;46.858;18.632;2023-01-25T11:30:15;101811.59;;;3.28;100.00
71306;BME280;59097;46.858;18.632;2023-01-25T11:32:46;101801.69;;;3.44;100.00
71306;BME280;59097;46.858;18.632;2023-01-25T11:35:18;101798.16;;;3.45;100.00
71306;BME280;59097;46.858;18.632;2023-01-25T11:38:16;101794.22;;;3.50;100.00
71306;BME280;59097;46.858;18.632;2023-01-25T11:41:18;101791.97;;;3.33;100.00
71306;BME280;59097;46.858;18.632;2023-01-25T11:52:05;101750.19;;;3.19;100.00
71306;BME280;59097;46.858;18.632;2023-01-25T11:54:47;101776.75;;;3.38;100.00
71306;BME280;59097;46.858;18.632;2023-01-25T12:03:19;101756.09;;;3.34;100.00
71306;BME280;59097;46.858;18.632;2023-01-25T12:25:51;101715.25;;;3.90;100.00
71306;BME280;59097;46.858;18.632;2023-01-25T12:28:44;101716.81;;;3.92;100.00
71306;BME280;59097;46.858;18.632;2023-01-25T12:34:00;101710.72;;;3.92;100.00
71306;BME280;59097;46.858;18.632;2023-01-25T12:36:34;101703.31;;;3.86;100.00
71306;BME280;59097;46.858;18.632;2023-01-25T12:39:11;101704.19;;;3.73;100.00
71306;BME280;59097;46.858;18.632;2023-01-25T12:42:01;101701.78;;;3.94;100.00
71306;BME280;59097;46.858;18.632;2023-01-25T12:44:42;101701.69;;;3.96;100.00
71306;BME280;59097;46.858;18.632;2023-01-25T12:53:04;101690.47;;;4.05;100.00
71306;BME280;59097;46.858;18.632;2023-01-25T12:55:54;101685.47;;;4.13;100.00
71306;BME280;59097;46.858;18.632;2023-01-25T13:01:48;101680.59;;;4.30;100.00
71306;BME280;59097;46.858;18.632;2023-01-25T13:07:38;101678.59;;;4.34;100.00
71306;BME280;59097;46.858;18.632;2023-01-25T13:10:48;101672.69;;;3.97;100.00
71306;BME280;59097;46.858;18.632;2023-01-25T13:13:24;101673.28;;;4.12;100.00
71306;BME280;59097;46.858;18.632;2023-01-25T13:15:52;101665.53;;;4.10;100.00
71306;BME280;59097;46.858;18.632;2023-01-25T13:21:00;101667.81;;;4.15;100.00
71306;BME280;59097;46.858;18.632;2023-01-25T13:23:39;101668.88;;;4.12;100.00
71306;BME280;59097;46.858;18.632;2023-01-25T13:28:50;101672.31;;;4.02;100.00
71306;BME280;59097;46.858;18.632;2023-01-25T13:34:12;101664.44;;;4.02;100.00
71306;BME280;59097;46.858;18.632;2023-01-25T13:37:22;101668.00;;;3.90;100.00
71306;BME280;59097;46.858;18.632;2023-01-25T13:39:51;101658.22;;;3.92;100.00
71306;BME280;59097;46.858;18.632;2023-01-25T13:42:26;101659.69;;;4.07;100.00
71306;BME280;59097;46.858;18.632;2023-01-25T13:45:01;101662.03;;;3.99;100.00
71306;BME280;59097;46.858;18.632;2023-01-25T13:47:35;101632.69;;;3.83;100.00
71306;BME280;59097;46.858;18.632;2023-01-25T13:50:34;101662.41;;;3.83;100.00
71306;BME280;59097;46.858;18.632;2023-01-25T13:53:20;101649.59;;;3.78;100.00
71306;BME280;59097;46.858;18.632;2023-01-25T13:55:53;101627.75;;;3.67;100.00
71306;BME280;59097;46.858;18.632;2023-01-25T14:01:06;101656.16;;;3.73;100.00
71306;BME280;59097;46.858;18.632;2023-01-25T14:03:45;101654.22;;;3.64;100.00
71306;BME280;59097;46.858;18.632;2023-01-25T14:06:36;101658.62;;;3.63;100.00
71306;BME280;59097;46.858;18.632;2023-01-25T14:09:12;101654.66;;;3.58;100.00
71306;BME280;59097;46.858;18.632;2023-01-25T14:12:02;101653.34;;;3.52;100.00
71306;BME280;59097;46.858;18.632;2023-01-25T14:14:32;101588.16;;;3.24;100.00
71306;BME280;59097;46.858;18.632;2023-01-25T14:19:48;101649.38;;;3.47;100.00
71306;BME280;59097;46.858;18.632;2023-01-25T14:22:37;101633.66;;;3.47;100.00
71306;BME280;59097;46.858;18.632;2023-01-25T14:25:16;101635.44;;;3.46;100.00
71306;BME280;59097;46.858;18.632;2023-01-25T14:27:59;101636.16;;;3.48;100.00
71306;BME280;59097;46.858;18.632;2023-01-25T14:30:31;101563.66;;;3.01;100.00
71306;BME280;59097;46.858;18.632;2023-01-25T14:33:02;101633.66;;;3.47;100.00
71306;BME280;59097;46.858;18.632;2023-01-25T14:35:35;101621.78;;;3.30;100.00
71306;BME280;59097;46.858;18.632;2023-01-25T14:44:15;101625.88;;;3.45;100.00
71306;BME280;59097;46.858;18.632;2023-01-25T14:46:47;101619.16;;;3.30;100.00
71306;BME280;59097;46.858;18.632;2023-01-25T14:49:30;101629.41;;;3.33;100.00
71306;BME280;59097;46.858;18.632;2023-01-25T14:52:11;101629.41;;;3.33;100.00
71306;BME280;59097;46.858;18.632;2023-01-25T14:54:52;101596.47;;;3.18;100.00